Time;durP1;ratioP1;P1;durP2;ratioP2;P2;SDS_P1;SDS_P2;PMS_P1;PMS_P2;Temp;Humidity;BMP_temperature;BMP_pressure;BME280_temperature;BME280_humidity;BME280_pressure;Samples;Min_cycle;Max_cycle;Signal;HPM_P1;HPM_P2
2022/03/12 00:01:32;;;;;;;45.28;19.02;;;;;;;-6.85;47.46;99011.58;1698809;84;21039;-85
2022/03/12 00:04:01;;;;;;;45.10;18.42;;;;;;;-6.87;49.37;99015.73;1698906;84;21059;-85
2022/03/12 00:06:28;;;;;;;46.70;17.57;;;;;;;-6.88;47.82;99022.60;1698854;84;21024;-86
2022/03/12 00:08:55;;;;;;;40.33;18.10;;;;;;;-6.91;47.52;99026.28;1699061;84;20996;-85
2022/03/12 00:11:27;;;;;;;38.83;15.60;;;;;;;-6.96;47.71;99028.61;1696612;84;21474;-86
2022/03/12 00:13:57;;;;;;;36.13;15.83;;;;;;;-6.95;47.95;99033.34;1696369;84;21028;-85
2022/03/12 00:16:25;;;;;;;44.30;16.30;;;;;;;-7.01;47.83;99033.91;1692752;84;21501;-86
2022/03/12 00:18:58;;;;;;;31.05;14.65;;;;;;;-7.04;48.52;99033.33;1692774;85;21474;-86
2022/03/12 00:21:34;;;;;;;36.90;15.32;;;;;;;-7.07;48.33;99032.25;1702977;84;20994;-86
2022/03/12 00:24:03;;;;;;;32.65;14.25;;;;;;;-7.07;48.48;99031.86;1704386;84;21049;-88
2022/03/12 00:26:30;;;;;;;35.58;14.33;;;;;;;-7.10;48.37;99025.23;1704208;84;20986;-86
2022/03/12 00:28:58;;;;;;;32.63;14.35;;;;;;;-7.14;48.41;99024.59;1704311;84;21044;-87
2022/03/12 00:31:26;;;;;;;40.35;16.40;;;;;;;-7.14;48.44;99026.27;1702443;84;21040;-86
2022/03/12 00:33:54;;;;;;;34.13;15.13;;;;;;;-7.13;48.63;99028.03;1698791;84;21043;-85
2022/03/12 00:36:20;;;;;;;35.73;14.68;;;;;;;-7.18;48.81;99031.23;1700456;84;20961;-86
2022/03/12 00:38:50;;;;;;;32.48;14.07;;;;;;;-7.21;48.66;99041.77;1704018;84;20981;-85
2022/03/12 00:41:16;;;;;;;32.40;14.55;;;;;;;-7.29;49.49;99042.22;1704336;84;21025;-86
2022/03/12 00:43:45;;;;;;;35.45;14.87;;;;;;;-7.24;48.79;99042.86;1729369;83;21406;-88
2022/03/12 00:46:12;;;;;;;42.17;15.23;;;;;;;-7.21;48.64;99045.24;1733504;83;21043;-87
2022/03/12 00:48:39;;;;;;;32.23;14.35;;;;;;;-7.23;48.19;99042.09;1733441;83;20956;-87
2022/03/12 00:51:09;;;;;;;37.25;14.20;;;;;;;-7.20;49.33;99038.38;1723954;83;21364;-88
2022/03/12 00:53:39;;;;;;;33.65;13.70;;;;;;;-7.25;49.55;99039.80;1698975;84;21477;-86
2022/03/12 00:56:06;;;;;;;36.83;14.43;;;;;;;-7.24;48.72;99037.71;1698816;84;21501;-87
2022/03/12 00:58:38;;;;;;;35.45;14.10;;;;;;;-7.22;48.98;99041.28;1698943;84;21016;-86
2022/03/12 01:01:07;;;;;;;34.60;14.60;;;;;;;-7.22;49.01;99043.47;1699074;84;21091;-86
2022/03/12 01:03:33;;;;;;;33.35;12.90;;;;;;;-7.25;49.27;99041.09;1698764;84;21012;-86
2022/03/12 01:06:03;;;;;;;30.37;11.93;;;;;;;-7.34;51.47;99046.61;1699053;84;21454;-86
2022/03/12 01:08:32;;;;;;;32.33;13.98;;;;;;;-7.36;51.53;99055.52;1699020;84;21036;-86
2022/03/12 01:11:08;;;;;;;33.88;13.25;;;;;;;-7.41;52.06;99055.66;1697216;84;21037;-85
2022/03/12 01:13:34;;;;;;;34.10;13.68;;;;;;;-7.46;51.14;99045.09;1693246;85;21020;-85
2022/03/12 01:16:02;;;;;;;36.65;13.88;;;;;;;-7.49;51.93;99047.86;1693066;85;20993;-85
2022/03/12 01:18:29;;;;;;;33.60;13.95;;;;;;;-7.68;54.33;99044.22;1685847;84;21014;-86
2022/03/12 01:21:07;;;;;;;31.07;12.25;;;;;;;-7.73;52.02;99046.50;1685713;84;20993;-86
2022/03/12 01:23:34;;;;;;;31.10;12.80;;;;;;;-7.70;51.72;99041.94;1685546;85;21021;-87
2022/03/12 01:26:01;;;;;;;30.37;12.33;;;;;;;-7.64;51.75;99039.72;1685782;85;21444;-87
2022/03/12 01:28:27;;;;;;;29.45;11.10;;;;;;;-7.60;52.26;99049.83;1685745;85;21080;-87
2022/03/12 01:30:54;;;;;;;30.68;12.20;;;;;;;-7.59;51.13;99051.21;1687993;85;21004;-88
2022/03/12 01:33:21;;;;;;;31.55;13.05;;;;;;;-7.56;51.07;99055.66;1693979;85;21043;-88
2022/03/12 01:35:48;;;;;;;29.00;11.88;;;;;;;-7.56;51.04;99048.80;1693924;85;21017;-89
2022/03/12 01:38:14;;;;;;;27.02;11.53;;;;;;;-7.53;51.91;99046.80;1693711;85;21044;-88
2022/03/12 01:40:41;;;;;;;22.73;11.03;;;;;;;-7.54;51.29;99047.61;1693934;84;21454;-87
2022/03/12 01:43:07;;;;;;;27.85;12.05;;;;;;;-7.55;51.34;99052.27;1693730;85;20985;-88
2022/03/12 01:45:36;;;;;;;32.70;12.82;;;;;;;-7.55;50.94;99051.86;1694075;84;21054;-88
2022/03/12 01:48:06;;;;;;;28.27;11.73;;;;;;;-7.57;50.96;99049.98;1693916;84;21007;-88
2022/03/12 01:50:37;;;;;;;23.90;11.60;;;;;;;-7.63;51.02;99051.82;1692810;84;21040;-87
2022/03/12 01:53:08;;;;;;;25.72;10.25;;;;;;;-7.62;51.16;99051.40;1685622;85;20993;-87
2022/03/12 01:55:39;;;;;;;24.82;10.88;;;;;;;-7.59;51.79;99056.75;1685614;85;21057;-87
2022/03/12 01:58:07;;;;;;;25.72;10.98;;;;;;;-7.62;51.40;99052.30;1685704;84;21025;-87
2022/03/12 02:00:44;;;;;;;26.07;11.08;;;;;;;-7.65;51.39;99043.52;1685639;85;21025;-87
2022/03/12 02:03:13;;;;;;;20.60;9.93;;;;;;;-7.74;51.54;99049.88;1685674;85;21056;-87
2022/03/12 02:05:42;;;;;;;25.20;10.55;;;;;;;-7.79;51.95;99051.29;1685978;84;21106;-85
2022/03/12 02:08:14;;;;;;;20.52;8.95;;;;;;;-7.77;51.69;99056.53;1693865;84;20981;-85
2022/03/12 02:10:43;;;;;;;24.57;10.90;;;;;;;-7.80;51.73;99061.48;1693606;85;21474;-85
2022/03/12 02:13:11;;;;;;;24.02;10.00;;;;;;;-7.87;51.76;99063.70;1693692;85;21487;-86
2022/03/12 02:15:38;;;;;;;23.27;9.65;;;;;;;-7.90;51.85;99070.34;1693672;85;21085;-86
2022/03/12 02:18:05;;;;;;;24.57;9.75;;;;;;;-7.97;52.94;99071.65;1702900;84;21026;-85
2022/03/12 02:20:33;;;;;;;20.32;8.53;;;;;;;-8.04;52.68;99074.23;1706742;84;21013;-85
2022/03/12 02:22:59;;;;;;;24.20;9.50;;;;;;;-8.08;52.87;99069.69;1707198;84;20969;-85
2022/03/12 02:25:30;;;;;;;21.80;9.80;;;;;;;-8.10;53.46;99063.16;1701879;84;21485;-86
2022/03/12 02:27:59;;;;;;;22.62;9.53;;;;;;;-8.05;53.36;99071.18;1675874;86;20976;-86
2022/03/12 02:30:37;;;;;;;23.22;10.20;;;;;;;-8.02;53.80;99083.34;1675934;86;21035;-87
2022/03/12 02:33:02;;;;;;;24.65;10.15;;;;;;;-8.02;55.37;99079.06;1675585;86;20996;-86
2022/03/12 02:35:35;;;;;;;22.37;10.10;;;;;;;-8.10;54.80;99084.16;1675894;86;21052;-86
2022/03/12 02:38:00;;;;;;;24.77;10.45;;;;;;;-8.09;55.55;99075.22;1677895;84;21008;-87
2022/03/12 02:40:27;;;;;;;25.30;11.00;;;;;;;-8.11;54.02;99078.11;1678705;85;21016;-86
2022/03/12 02:42:58;;;;;;;27.13;10.05;;;;;;;-8.15;55.69;99080.00;1678941;85;20961;-86
2022/03/12 02:45:27;;;;;;;25.82;9.48;;;;;;;-8.24;55.73;99075.56;1679301;84;20993;-86
2022/03/12 02:47:57;;;;;;;20.37;9.38;;;;;;;-8.25;54.81;99091.41;1675757;86;21004;-86
2022/03/12 02:50:25;;;;;;;17.10;8.85;;;;;;;-8.28;54.84;99084.77;1676054;86;21438;-86
2022/03/12 02:52:54;;;;;;;19.07;8.98;;;;;;;-8.26;55.15;99088.31;1676797;84;20961;-86
2022/03/12 02:55:24;;;;;;;19.85;8.40;;;;;;;-8.27;54.63;99083.97;1676529;86;21067;-86
2022/03/12 02:57:52;;;;;;;22.90;9.88;;;;;;;-8.27;54.48;99094.26;1675944;86;21142;-86
2022/03/12 03:00:20;;;;;;;17.02;8.88;;;;;;;-8.28;54.47;99080.91;1675876;86;21395;-87
2022/03/12 03:02:55;;;;;;;18.77;9.03;;;;;;;-8.28;54.92;99092.48;1676324;84;21425;-86
2022/03/12 03:08:03;;;;;;;15.72;8.03;;;;;;;-8.29;54.46;99095.86;1676047;86;20322;-86
2022/03/12 03:10:36;;;;;;;20.72;9.13;;;;;;;-8.29;55.51;99100.10;1675889;86;21153;-86
2022/03/12 03:13:21;;;;;;;25.20;7.95;;;;;;;-8.32;56.02;99095.66;1675574;86;21437;-86
2022/03/12 03:15:50;;;;;;;;;;;;;;;-8.27;55.30;99084.39;1682730;84;21442;-85
2022/03/12 03:18:22;;;;;;;15.05;6.80;;;;;;;-8.26;54.84;99092.17;1701554;83;20128;-85
2022/03/12 03:20:49;;;;;;;19.25;7.85;;;;;;;-8.35;54.80;99096.34;1679635;84;21010;-85
2022/03/12 03:23:16;;;;;;;16.12;7.40;;;;;;;-8.45;54.88;99092.70;1699005;84;21005;-86
2022/03/12 03:25:44;;;;;;;21.15;7.97;;;;;;;-8.43;54.88;99089.82;1699047;84;21029;-86
2022/03/12 03:28:10;;;;;;;23.52;8.63;;;;;;;-8.52;55.22;99086.28;1699193;84;21334;-85
2022/03/12 03:30:39;;;;;;;18.45;7.45;;;;;;;-8.51;55.26;99085.48;1699004;84;21428;-86
2022/03/12 03:33:16;;;;;;;18.65;7.25;;;;;;;-8.55;55.66;99081.00;1699112;84;21021;-86
2022/03/12 03:35:43;;;;;;;16.10;6.87;;;;;;;-8.58;55.41;99088.50;1698989;84;21002;-86
2022/03/12 03:38:12;;;;;;;16.05;7.37;;;;;;;-8.59;55.31;99085.44;1699028;83;20972;-86
2022/03/12 03:40:40;;;;;;;16.10;6.83;;;;;;;-8.60;55.71;99084.05;1699036;84;21434;-86
2022/03/12 03:43:17;;;;;;;14.68;7.35;;;;;;;-8.66;56.23;99084.16;1698963;84;21512;-88
2022/03/12 03:45:48;;;;;;;16.70;6.72;;;;;;;-8.63;55.74;99086.03;1699124;84;21036;-90
2022/03/12 03:48:19;;;;;;;17.95;7.00;;;;;;;-8.58;55.99;99086.31;1699148;84;21057;-90
2022/03/12 03:50:48;;;;;;;18.67;6.97;;;;;;;-8.62;55.96;99089.98;1699094;84;21003;-89
2022/03/12 03:53:19;;;;;;;17.70;7.35;;;;;;;-8.63;57.73;99096.31;1699333;84;21115;-89
2022/03/12 03:55:46;;;;;;;16.52;7.62;;;;;;;-8.64;56.45;99099.68;1699111;84;21020;-89
2022/03/12 03:58:14;;;;;;;16.20;7.53;;;;;;;-8.64;55.94;99099.68;1698996;84;21413;-87
2022/03/12 04:00:47;;;;;;;17.80;7.25;;;;;;;-8.67;55.83;99097.80;1699247;84;21388;-89
2022/03/12 04:03:13;;;;;;;20.02;7.70;;;;;;;-8.68;55.88;99104.13;1697805;84;21015;-87
2022/03/12 04:05:40;;;;;;;16.80;7.35;;;;;;;-8.69;56.07;99105.79;1698913;84;20958;-88
2022/03/12 04:08:10;;;;;;;16.10;6.83;;;;;;;-8.72;56.02;99106.90;1679186;84;20969;-88
2022/03/12 04:10:39;;;;;;;18.73;7.60;;;;;;;-8.72;55.94;99111.14;1699097;84;20977;-87
2022/03/12 04:13:19;;;;;;;14.58;6.53;;;;;;;-8.71;56.04;99106.10;1699279;84;21415;-88
2022/03/12 04:15:47;;;;;;;17.60;6.47;;;;;;;-8.68;55.89;99103.70;1699445;84;21473;-88
2022/03/12 04:18:17;;;;;;;16.23;6.95;;;;;;;-8.67;56.32;99108.47;1702975;83;21031;-88
2022/03/12 04:20:47;;;;;;;13.28;5.90;;;;;;;-8.66;56.03;99112.81;1708519;84;21026;-88
2022/03/12 04:23:21;;;;;;;18.17;6.87;;;;;;;-8.73;55.88;99118.36;1710034;84;20973;-88
2022/03/12 04:25:43;;;;;;;16.37;7.67;;;;;;;-8.76;57.47;99112.62;1706193;84;21072;-86
2022/03/12 04:28:10;;;;;;;17.52;7.90;;;;;;;-8.76;57.26;99111.34;1707327;84;22090;-90
2022/03/12 04:30:38;;;;;;;17.92;7.17;;;;;;;-8.80;56.91;99109.35;1707091;84;20953;-90
2022/03/12 04:33:07;;;;;;;14.28;6.12;;;;;;;-8.74;56.72;99111.03;1707119;84;21019;-90
2022/03/12 04:35:34;;;;;;;18.60;7.95;;;;;;;-8.77;56.59;99110.44;1680773;84;21080;-90
2022/03/12 04:38:03;;;;;;;14.90;6.78;;;;;;;-8.80;56.91;99114.49;1707162;84;21490;-90
2022/03/12 04:40:30;;;;;;;19.55;7.08;;;;;;;-8.80;56.98;99103.80;1707182;84;21419;-90
2022/03/12 04:42:57;;;;;;;16.20;6.05;;;;;;;-8.80;56.96;99114.08;1707281;84;21425;-90
2022/03/12 04:45:26;;;;;;;19.98;6.53;;;;;;;-8.82;56.63;99120.81;1707300;84;21031;-90
2022/03/12 04:47:54;;;;;;;17.92;7.28;;;;;;;-8.80;57.10;99122.20;1707256;84;20961;-89
2022/03/12 04:50:23;;;;;;;12.18;5.83;;;;;;;-8.80;57.92;99118.34;1706981;84;20989;-89
2022/03/12 04:52:54;;;;;;;12.10;5.75;;;;;;;-8.78;57.34;99118.04;1649019;87;21023;-89
2022/03/12 04:55:24;;;;;;;15.40;6.28;;;;;;;-8.77;58.15;99117.23;1644645;87;21622;-89
2022/03/12 04:57:55;;;;;;;13.28;5.22;;;;;;;-8.76;57.39;99120.33;1648924;87;21065;-88
2022/03/12 05:00:26;;;;;;;17.30;7.10;;;;;;;-8.79;57.43;99127.83;1668195;84;21071;-89
2022/03/12 05:03:15;;;;;;;15.78;7.20;;;;;;;-8.80;57.20;99122.20;1676110;86;21468;-89
2022/03/12 05:05:44;;;;;;;14.90;6.17;;;;;;;-8.80;57.14;99128.62;1658313;86;21039;-88
2022/03/12 05:08:19;;;;;;;17.98;6.35;;;;;;;-8.77;57.85;99130.09;1690289;84;21430;-88
2022/03/12 05:10:51;;;;;;;13.43;6.65;;;;;;;-8.76;58.41;99126.76;1704512;84;21024;-86
2022/03/12 05:13:23;;;;;;;12.78;6.70;;;;;;;-8.73;57.62;99135.06;1707203;84;21090;-87
2022/03/12 05:15:57;;;;;;;17.12;7.72;;;;;;;-8.70;57.40;99135.23;1707109;84;21356;-87
2022/03/12 05:18:26;;;;;;;17.12;7.00;;;;;;;-8.67;58.06;99135.07;1706684;83;21407;-87
2022/03/12 05:20:54;;;;;;;22.65;8.38;;;;;;;-8.65;57.98;99131.28;1707208;84;21413;-87
2022/03/12 05:23:23;;;;;;;15.43;6.90;;;;;;;-8.65;58.02;99133.47;1692155;84;21001;-87
2022/03/12 05:25:52;;;;;;;15.40;6.80;;;;;;;-8.58;57.87;99137.72;1675939;86;21405;-86
2022/03/12 05:28:26;;;;;;;16.12;6.40;;;;;;;-8.54;58.23;99129.04;1675856;86;21039;-86
2022/03/12 05:30:58;;;;;;;17.70;7.80;;;;;;;-8.50;58.13;99130.98;1676135;86;21011;-88
2022/03/12 05:33:23;;;;;;;12.85;6.85;;;;;;;-8.46;59.16;99134.64;1675779;86;21016;-89
2022/03/12 05:35:53;;;;;;;13.10;6.85;;;;;;;-8.50;58.40;99135.23;1675960;86;21414;-87
2022/03/12 05:38:19;;;;;;;13.60;6.00;;;;;;;-8.50;58.41;99140.37;1675920;86;21043;-88
2022/03/12 05:40:48;;;;;;;16.20;7.50;;;;;;;-8.45;58.38;99131.27;1675929;86;20988;-88
2022/03/12 05:43:15;;;;;;;23.83;8.65;;;;;;;-8.40;60.45;99137.59;1668827;84;20984;-87
2022/03/12 05:45:48;;;;;;;13.18;6.58;;;;;;;-8.35;59.17;99136.62;1648879;87;21042;-87
2022/03/12 05:48:17;;;;;;;16.10;6.80;;;;;;;-8.32;59.00;99140.66;1649041;87;21128;-87
2022/03/12 05:50:47;;;;;;;14.13;6.50;;;;;;;-8.24;58.80;99138.57;1648827;87;21015;-88
2022/03/12 05:53:17;;;;;;;18.32;7.28;;;;;;;-8.17;58.45;99139.47;1648944;87;21035;-88
2022/03/12 05:55:47;;;;;;;11.75;6.35;;;;;;;-8.16;60.06;99140.34;1648933;87;21417;-88
2022/03/12 05:58:16;;;;;;;12.33;6.05;;;;;;;-8.09;58.96;99142.11;1673681;86;21072;-88
2022/03/12 06:00:45;;;;;;;13.85;6.30;;;;;;;-8.01;58.80;99140.02;1705651;84;21427;-88
2022/03/12 06:03:12;;;;;;;14.85;6.30;;;;;;;-7.97;59.04;99134.69;1705971;84;20981;-90
2022/03/12 06:05:42;;;;;;;15.00;6.97;;;;;;;-7.93;60.42;99139.63;1707431;84;21021;-91
2022/03/12 06:08:21;;;;;;;13.32;6.20;;;;;;;-7.87;58.82;99144.76;1707334;84;21061;-91
2022/03/12 06:10:45;;;;;;;17.32;7.40;;;;;;;-7.79;58.49;99148.19;1705297;84;21052;-88
2022/03/12 06:13:11;;;;;;;22.55;6.72;;;;;;;-7.76;58.36;99149.30;1707296;83;20981;-88
2022/03/12 06:15:39;;;;;;;12.47;6.30;;;;;;;-7.70;58.39;99150.05;1652291;85;21040;-89
2022/03/12 06:18:08;;;;;;;15.68;6.97;;;;;;;-7.66;59.90;99152.02;1683191;83;21004;-91
2022/03/12 06:20:37;;;;;;;20.08;7.75;;;;;;;-7.60;58.67;99155.38;1705452;84;21529;-89
2022/03/12 06:23:04;;;;;;;19.50;7.15;;;;;;;-7.58;60.22;99148.63;1704656;84;21139;-90
2022/03/12 06:25:31;;;;;;;21.27;7.58;;;;;;;-7.50;58.66;99158.11;1704244;84;21079;-90
2022/03/12 06:27:59;;;;;;;17.25;7.92;;;;;;;-7.43;58.43;99152.55;1704247;84;21016;-90
2022/03/12 06:30:29;;;;;;;23.45;8.53;;;;;;;-7.34;59.96;99158.27;1704409;84;21091;-90
2022/03/12 06:32:57;;;;;;;20.27;9.10;;;;;;;-7.27;59.89;99166.35;1704459;84;21110;-90
2022/03/12 06:35:27;;;;;;;21.55;8.78;;;;;;;-7.19;59.09;99167.30;1704393;84;21066;-89
2022/03/12 06:37:58;;;;;;;19.52;8.40;;;;;;;-7.11;59.57;99163.88;1704443;84;20992;-89
2022/03/12 06:40:28;;;;;;;20.25;8.30;;;;;;;-7.04;58.72;99167.72;1704449;84;20992;-88
2022/03/12 06:42:56;;;;;;;20.40;9.38;;;;;;;-6.99;59.17;99167.59;1704218;84;21007;-88
2022/03/12 06:45:24;;;;;;;20.68;8.65;;;;;;;-6.92;59.78;99168.46;1704104;84;21007;-88
2022/03/12 06:47:52;;;;;;;20.55;9.28;;;;;;;-6.84;60.39;99165.05;1704151;84;21059;-88
2022/03/12 06:50:22;;;;;;;20.48;8.95;;;;;;;-6.74;60.77;99160.43;1704183;84;21000;-88
2022/03/12 06:52:51;;;;;;;19.52;8.55;;;;;;;-6.64;60.06;99171.34;1704030;84;21052;-88
2022/03/12 06:55:21;;;;;;;20.08;9.15;;;;;;;-6.53;59.84;99164.23;1704196;84;21060;-88
2022/03/12 06:57:52;;;;;;;22.75;10.45;;;;;;;-6.39;60.30;99158.98;1675458;84;21060;-89
2022/03/12 07:00:24;;;;;;;23.27;9.68;;;;;;;-6.26;59.02;99166.62;1670321;86;21410;-89
2022/03/12 07:02:51;;;;;;;20.15;9.13;;;;;;;-6.14;58.85;99164.23;1670566;86;22188;-89
2022/03/12 07:05:18;;;;;;;21.93;9.48;;;;;;;-5.99;58.45;99163.75;1704474;84;21028;-89
2022/03/12 07:07:48;;;;;;;23.27;10.25;;;;;;;-5.84;58.17;99164.11;1704418;84;21480;-91
2022/03/12 07:10:17;;;;;;;20.88;9.95;;;;;;;-5.72;57.81;99167.34;1704428;84;21425;-89
2022/03/12 07:12:47;;;;;;;30.62;11.63;;;;;;;-5.57;57.65;99158.27;1704378;84;21135;-91
2022/03/12 07:15:18;;;;;;;23.57;10.58;;;;;;;-5.43;57.81;99154.24;1676640;84;21085;-90
2022/03/12 07:17:45;;;;;;;24.18;12.07;;;;;;;-5.30;59.18;99150.60;1704532;84;21441;-90
2022/03/12 07:20:14;;;;;;;24.77;11.03;;;;;;;-5.15;57.74;99153.50;1699385;83;21419;-90
2022/03/12 07:22:42;;;;;;;21.82;9.75;;;;;;;-5.05;57.69;99154.06;1698970;84;21040;-89
2022/03/12 07:25:11;;;;;;;24.95;10.28;;;;;;;-4.92;57.78;99156.88;1698606;84;21049;-89
2022/03/12 07:27:39;;;;;;;17.73;9.00;;;;;;;-4.74;57.20;99158.59;1664965;86;21135;-89
2022/03/12 07:30:09;;;;;;;18.12;8.38;;;;;;;-4.62;56.81;99150.99;1698731;84;21122;-89
2022/03/12 07:32:36;;;;;;;18.90;8.43;;;;;;;-4.47;56.32;99141.39;1698672;84;22188;-89
2022/03/12 07:35:07;;;;;;;15.88;7.75;;;;;;;-4.34;56.00;99148.45;1698485;84;21043;-89
2022/03/12 07:37:34;;;;;;;14.63;8.38;;;;;;;-4.20;55.59;99151.30;1698688;84;21028;-89
2022/03/12 07:40:01;;;;;;;16.62;7.42;;;;;;;-4.06;55.17;99151.98;1698603;84;20985;-89
2022/03/12 07:42:28;;;;;;;16.30;7.17;;;;;;;-3.92;54.40;99150.42;1698587;84;21020;-88
2022/03/12 07:44:54;;;;;;;12.70;5.72;;;;;;;-3.76;54.33;99145.56;1699184;84;20942;-89
2022/03/12 07:47:21;;;;;;;7.78;3.58;;;;;;;-3.64;51.62;99139.66;1699168;84;21073;-88
2022/03/12 07:49:48;;;;;;;6.40;3.58;;;;;;;-3.49;49.50;99147.23;1699355;84;21005;-88
2022/03/12 07:52:14;;;;;;;4.95;3.20;;;;;;;-3.33;49.38;99147.52;1699495;84;20998;-88
2022/03/12 07:54:41;;;;;;;7.25;3.70;;;;;;;-3.22;50.07;99147.10;1699343;84;20973;-88
2022/03/12 07:57:07;;;;;;;5.83;2.72;;;;;;;-3.06;49.09;99148.24;1699164;84;21021;-88
2022/03/12 07:59:34;;;;;;;6.22;3.37;;;;;;;-2.99;45.18;99144.21;1699211;84;20966;-88
2022/03/12 08:02:02;;;;;;;13.32;5.97;;;;;;;-2.91;45.38;99144.53;1699216;84;21451;-88
2022/03/12 08:04:33;;;;;;;13.98;5.22;;;;;;;-2.80;47.65;99144.61;1698605;84;21063;-88
2022/03/12 08:07:00;;;;;;;8.55;4.22;;;;;;;-2.71;46.56;99148.39;1698674;84;21121;-89
2022/03/12 08:09:26;;;;;;;8.75;3.70;;;;;;;-2.61;45.42;99153.58;1698893;84;21020;-88
2022/03/12 08:11:53;;;;;;;7.42;3.33;;;;;;;-2.51;46.61;99149.24;1698880;84;21016;-88
2022/03/12 08:14:22;;;;;;;6.55;3.40;;;;;;;-2.48;44.38;99146.78;1698716;84;21011;-88
2022/03/12 08:16:49;;;;;;;10.05;4.33;;;;;;;-2.42;45.49;99152.62;1698523;84;21029;-88
2022/03/12 08:19:15;;;;;;;8.38;3.98;;;;;;;-2.31;43.84;99153.06;1693976;84;21037;-88
2022/03/12 08:21:42;;;;;;;6.87;3.52;;;;;;;-2.19;44.04;99148.78;1688676;85;21063;-88
2022/03/12 08:24:11;;;;;;;8.68;4.08;;;;;;;-2.03;44.59;99154.19;1693896;85;20994;-88
2022/03/12 08:26:41;;;;;;;7.95;3.47;;;;;;;-1.99;44.22;99150.46;1693807;85;21066;-88
2022/03/12 08:29:05;;;;;;;9.53;4.12;;;;;;;-1.95;44.43;99146.70;1693795;85;20975;-87
2022/03/12 08:31:32;;;;;;;8.83;3.95;;;;;;;-1.92;44.41;99150.29;1693915;84;21446;-87
2022/03/12 08:34:00;;;;;;;8.30;4.00;;;;;;;-1.86;43.51;99158.31;1693631;85;21443;-87
2022/03/12 08:36:26;;;;;;;6.60;3.55;;;;;;;-1.79;44.21;99150.78;1693520;84;20991;-88
2022/03/12 08:38:53;;;;;;;6.47;3.00;;;;;;;-1.75;40.72;99153.55;1693948;85;21478;-88
2022/03/12 08:41:20;;;;;;;7.30;3.08;;;;;;;-1.69;42.30;99148.11;1693891;85;21010;-88
2022/03/12 08:43:48;;;;;;;6.80;2.70;;;;;;;-1.55;41.66;99146.92;1693839;84;21016;-88
2022/03/12 08:46:16;;;;;;;5.95;3.35;;;;;;;-1.42;41.32;99159.09;1693746;85;21080;-88
2022/03/12 08:48:42;;;;;;;5.20;2.95;;;;;;;-1.37;41.36;99150.62;1693983;85;20992;-87
2022/03/12 08:51:09;;;;;;;5.87;3.22;;;;;;;-1.29;41.65;99147.42;1693677;85;21038;-87
2022/03/12 08:53:35;;;;;;;8.73;3.42;;;;;;;-1.25;41.42;99151.92;1693985;85;20958;-89
2022/03/12 08:56:04;;;;;;;6.20;3.52;;;;;;;-1.23;41.52;99145.94;1694002;85;21486;-89
2022/03/12 08:58:32;;;;;;;6.40;3.65;;;;;;;-1.19;41.64;99144.33;1693907;85;21392;-88
2022/03/12 09:01:02;;;;;;;7.75;3.75;;;;;;;-1.16;41.78;99140.95;1693847;85;20985;-90
2022/03/12 09:03:30;;;;;;;6.25;3.95;;;;;;;-1.10;42.08;99140.77;1693890;85;20974;-90
2022/03/12 09:05:57;;;;;;;9.35;4.55;;;;;;;-1.02;38.95;99145.34;1693857;85;21038;-88
2022/03/12 09:08:23;;;;;;;7.67;4.42;;;;;;;-0.98;39.16;99140.31;1690346;85;21049;-88
2022/03/12 09:10:50;;;;;;;7.12;4.15;;;;;;;-0.92;39.88;99142.66;1688729;84;21021;-87
2022/03/12 09:13:18;;;;;;;6.83;4.05;;;;;;;-0.84;38.00;99132.98;1688378;85;21065;-87
2022/03/12 09:15:46;;;;;;;6.90;4.45;;;;;;;-0.73;39.35;99137.67;1688585;85;21048;-87
2022/03/12 09:18:15;;;;;;;6.42;4.10;;;;;;;-0.65;39.85;99134.02;1688689;84;21020;-88
2022/03/12 09:20:46;;;;;;;7.70;4.00;;;;;;;-0.67;37.86;99130.05;1688469;84;21036;-87
2022/03/12 09:23:11;;;;;;;6.58;3.77;;;;;;;-0.60;39.54;99122.94;1691315;85;21014;-90
2022/03/12 09:25:38;;;;;;;11.85;4.33;;;;;;;-0.57;39.81;99121.75;1693941;85;20989;-90
2022/03/12 09:28:04;;;;;;;7.12;4.42;;;;;;;-0.54;38.81;99123.13;1693898;85;21054;-91
2022/03/12 09:30:31;;;;;;;8.30;4.10;;;;;;;-0.47;39.38;99123.33;1693999;85;21032;-90
2022/03/12 09:32:57;;;;;;;10.80;4.37;;;;;;;-0.43;39.11;99115.69;1693795;85;21006;-90
2022/03/12 09:35:25;;;;;;;9.80;4.30;;;;;;;-0.35;37.83;99111.13;1693779;85;20982;-90
2022/03/12 09:37:55;;;;;;;13.80;4.97;;;;;;;-0.22;38.59;99109.80;1694060;84;21037;-90
2022/03/12 09:40:22;;;;;;;8.40;4.60;;;;;;;-0.15;37.63;99106.16;1694087;85;21008;-92
2022/03/12 09:42:49;;;;;;;9.08;4.40;;;;;;;-0.04;38.18;99109.52;1693605;84;20974;-92
2022/03/12 09:45:16;;;;;;;8.95;5.20;;;;;;;0.07;38.01;99108.12;1694383;84;21376;-93
2022/03/12 09:47:43;;;;;;;9.45;5.08;;;;;;;0.11;37.09;99108.68;1694064;85;21002;-93
2022/03/12 09:50:11;;;;;;;14.23;5.47;;;;;;;0.20;37.79;99107.20;1694028;85;20958;-91
2022/03/12 09:52:38;;;;;;;8.18;4.40;;;;;;;0.18;38.03;99101.03;1694121;85;21049;-92
2022/03/12 09:55:05;;;;;;;8.88;4.30;;;;;;;0.16;37.01;99104.89;1693868;84;21464;-90
2022/03/12 09:57:34;;;;;;;12.30;5.12;;;;;;;0.15;36.05;99094.41;1694021;85;20958;-89
2022/03/12 10:00:04;;;;;;;9.78;5.10;;;;;;;0.26;35.39;99103.47;1694022;84;20990;-91
2022/03/12 10:02:34;;;;;;;7.62;4.40;;;;;;;0.27;35.99;99090.88;1691327;85;21007;-90
2022/03/12 10:05:01;;;;;;;9.38;4.75;;;;;;;0.35;37.07;99084.59;1688820;85;21052;-90
2022/03/12 10:07:27;;;;;;;9.03;4.42;;;;;;;0.39;36.58;99085.15;1688745;84;21056;-92
2022/03/12 10:09:54;;;;;;;9.33;4.35;;;;;;;0.33;34.61;99080.63;1663245;85;21501;-92
2022/03/12 10:12:20;;;;;;;11.00;4.30;;;;;;;0.41;35.77;99074.77;1688725;84;21017;-92
2022/03/12 10:14:50;;;;;;;10.08;4.65;;;;;;;0.53;36.41;99075.09;1688662;84;21447;-92
2022/03/12 10:17:18;;;;;;;11.08;4.58;;;;;;;0.68;35.26;99069.84;1688857;85;21040;-94
2022/03/12 10:19:48;;;;;;;10.58;4.70;;;;;;;0.74;34.41;99080.03;1692978;84;21040;-93
2022/03/12 10:22:16;;;;;;;9.30;4.35;;;;;;;0.78;35.01;99061.42;1698824;84;21043;-93
2022/03/12 10:24:43;;;;;;;6.47;3.87;;;;;;;0.96;36.09;99071.50;1698554;84;21064;-91
2022/03/12 10:27:09;;;;;;;7.00;3.65;;;;;;;1.13;35.36;99067.12;1698671;84;21028;-91
2022/03/12 10:29:38;;;;;;;10.58;4.30;;;;;;;1.21;33.26;99075.16;1698494;84;21526;-89
2022/03/12 10:32:23;;;;;;;8.93;4.33;;;;;;;1.28;34.82;99064.91;1698776;84;21414;-92
2022/03/12 10:34:53;;;;;;;7.00;3.67;;;;;;;1.45;35.57;99065.32;1698631;84;21043;-93
2022/03/12 10:37:27;;;;;;;9.78;3.65;;;;;;;1.56;34.32;99061.67;1698596;84;21032;-92
2022/03/12 10:40:23;;;;;;;5.15;3.52;;;;;;;1.58;34.00;99052.57;1699379;84;21010;-94
2022/03/12 10:43:05;;;;;;;7.95;3.92;;;;;;;1.67;33.26;99051.45;1698939;84;20996;-92
2022/03/12 10:45:39;;;;;;;8.35;3.65;;;;;;;1.88;34.31;99045.38;1698930;84;21062;-91
2022/03/12 10:48:06;;;;;;;8.28;4.50;;;;;;;2.00;31.91;99041.75;1698179;84;21095;-92
2022/03/12 10:50:40;;;;;;;7.95;4.45;;;;;;;2.51;31.35;99043.22;1698859;84;21414;-91
2022/03/12 10:53:11;;;;;;;9.65;4.47;;;;;;;3.41;29.11;99026.92;1699129;84;21020;-92
2022/03/12 10:55:41;;;;;;;8.13;3.80;;;;;;;4.33;27.17;99025.58;1698853;84;21486;-92
2022/03/12 10:58:28;;;;;;;9.35;4.60;;;;;;;5.35;25.57;99018.30;1698346;84;21083;-92
2022/03/12 11:01:01;;;;;;;8.70;4.75;;;;;;;6.52;26.12;99004.05;1698788;84;21003;-92
2022/03/12 11:03:37;;;;;;;7.92;4.25;;;;;;;7.76;25.77;98994.02;1698779;84;21421;-92
2022/03/12 11:06:06;;;;;;;7.08;4.85;;;;;;;8.93;26.58;98992.22;1698454;84;21064;-90
2022/03/12 11:08:35;;;;;;;32.88;20.02;;;;;;;9.94;23.73;98984.30;1698690;84;20981;-91
2022/03/12 11:11:11;;;;;;;10.93;5.55;;;;;;;10.82;24.38;98977.02;1665059;86;21104;-92
2022/03/12 11:13:48;;;;;;;9.75;4.90;;;;;;;11.70;24.67;98979.13;1698332;84;21454;-92
2022/03/12 11:16:32;;;;;;;7.33;4.90;;;;;;;12.54;23.87;98961.10;1698788;84;21047;-89
2022/03/12 11:19:07;;;;;;;8.05;4.83;;;;;;;13.41;20.58;98958.65;1700608;84;20978;-91
2022/03/12 11:21:53;;;;;;;11.17;5.10;;;;;;;14.10;20.86;98954.59;1701286;83;21454;-91
2022/03/12 11:24:24;;;;;;;7.70;4.87;;;;;;;14.62;18.71;98957.95;1701247;83;21059;-90
2022/03/12 11:27:05;;;;;;;6.25;4.65;;;;;;;15.23;19.40;98951.22;1705471;84;20998;-90
2022/03/12 11:29:30;;;;;;;8.23;5.33;;;;;;;15.60;19.73;98944.60;1698162;84;21046;-92
2022/03/12 11:32:09;;;;;;;8.08;4.92;;;;;;;16.27;19.83;98940.05;1699094;84;21041;-92
2022/03/12 11:34:44;;;;;;;8.18;4.42;;;;;;;16.20;15.59;98940.73;1699047;84;21053;-90
2022/03/12 11:37:20;;;;;;;7.58;4.90;;;;;;;15.29;14.67;98941.66;1699250;84;21384;-92
2022/03/12 11:39:50;;;;;;;5.75;4.53;;;;;;;15.74;17.07;98933.41;1698648;84;21115;-92